Time;durP1;ratioP1;P1;durP2;ratioP2;P2;SDS_P1;SDS_P2;PMS_P1;PMS_P2;Temp;Humidity;BMP_temperature;BMP_pressure;BME280_temperature;BME280_humidity;BME280_pressure;Samples;Min_cycle;Max_cycle;Signal;HPM_P1;HPM_P2
2022/01/10 00:00:34;;;;;;;;;;;0.80;99.90;;;;;;5069319;28;20074;-71
2022/01/10 00:03:00;;;;;;;;;;;0.80;99.90;;;;;;5069739;28;20010;-71
2022/01/10 00:05:26;;;;;;;;;;;0.80;99.90;;;;;;5069246;28;19962;-71
2022/01/10 00:07:51;;;;;;;;;;;0.80;99.90;;;;;;5069927;28;20008;-72
2022/01/10 00:10:18;;;;;;;;;;;0.80;99.90;;;;;;5072941;28;20287;-71
2022/01/10 00:12:43;;;;;;;;;;;0.80;99.90;;;;;;5054779;28;20316;-72
2022/01/10 00:15:09;;;;;;;;;;;0.80;99.90;;;;;;5072508;28;19916;-71
2022/01/10 00:17:38;;;;;;;;;;;0.80;99.90;;;;;;5072651;28;19908;-71
2022/01/10 00:20:14;;;;;;;;;;;0.80;99.90;;;;;;5055019;28;19908;-71
2022/01/10 00:22:45;;;;;;;;;;;0.80;99.90;;;;;;5072691;28;19930;-71
2022/01/10 00:25:10;;;;;;;;;;;0.80;99.90;;;;;;5072770;28;20246;-71
2022/01/10 00:27:36;;;;;;;;;;;0.80;99.90;;;;;;5072507;28;19912;-71
2022/01/10 00:30:02;;;;;;;;;;;0.80;99.90;;;;;;5072355;28;19909;-71
2022/01/10 00:32:27;;;;;;;;;;;0.80;99.90;;;;;;5072382;28;20378;-71
2022/01/10 00:34:53;;;;;;;;;;;0.80;99.90;;;;;;5054374;28;19935;-72
2022/01/10 00:37:19;;;;;;;;;;;0.80;99.90;;;;;;5072385;28;19998;-71
2022/01/10 00:39:46;;;;;;;;;;;0.80;99.90;;;;;;5072070;28;19908;-71
2022/01/10 00:42:13;;;;;;;;;;;0.70;99.90;;;;;;5053752;28;20007;-71
2022/01/10 00:44:44;;;;;;;;;;;0.70;99.90;;;;;;5072387;28;19912;-71
2022/01/10 00:47:10;;;;;;;;;;;0.60;99.90;;;;;;5057916;28;19908;-71
2022/01/10 00:49:36;;;;;;;;;;;0.70;99.90;;;;;;5052065;28;19919;-71
2022/01/10 00:52:01;;;;;;;;;;;0.60;99.90;;;;;;5064788;28;19909;-71
2022/01/10 00:54:27;;;;;;;;;;;0.50;99.90;;;;;;5053940;28;20011;-72
2022/01/10 00:56:52;;;;;;;;;;;0.50;99.90;;;;;;5071961;28;19908;-72
2022/01/10 00:59:18;;;;;;;;;;;0.40;99.90;;;;;;5071665;28;19915;-72
2022/01/10 01:01:43;;;;;;;;;;;0.40;99.90;;;;;;5071672;28;19909;-72
2022/01/10 01:04:09;;;;;;;;;;;0.40;99.90;;;;;;5071535;28;20010;-71
2022/01/10 01:06:35;;;;;;;;;;;0.40;99.90;;;;;;5053617;28;19912;-72
2022/01/10 01:09:06;;;;;;;;;;;0.40;99.90;;;;;;5071557;28;19908;-71
2022/01/10 01:14:04;;;;;;;;;;;0.30;99.90;;;;;;5072081;28;20355;-72
2022/01/10 01:16:43;;;;;;;;;;;0.30;99.90;;;;;;5071612;28;19912;-71
2022/01/10 01:24:25;;;;;;;;;;;0.30;99.90;;;;;;5071658;28;19935;-71
2022/01/10 01:26:51;;;;;;;;;;;0.30;99.90;;;;;;5071489;28;19909;-70
2022/01/10 01:29:19;;;;;;;;;;;0.30;99.90;;;;;;5053287;28;20391;-70
2022/01/10 01:31:45;;;;;;;;;;;0.30;99.90;;;;;;5071536;28;19915;-70
2022/01/10 01:34:13;;;;;;;;;;;0.20;99.90;;;;;;5071509;28;20287;-70
2022/01/10 01:36:39;;;;;;;;;;;0.20;99.90;;;;;;5061756;28;19966;-71
2022/01/10 01:39:15;;;;;;;;;;;0.20;99.90;;;;;;5065330;28;19908;-70
2022/01/10 01:41:42;;;;;;;;;;;0.20;99.90;;;;;;5070605;28;19921;-71
2022/01/10 01:44:07;;;;;;;;;;;0.20;99.90;;;;;;5052931;28;19977;-71
2022/01/10 01:46:34;;;;;;;;;;;0.20;99.90;;;;;;5061893;28;20346;-72
2022/01/10 01:49:00;;;;;;;;;;;0.20;99.90;;;;;;5033210;28;19919;-72
2022/01/10 01:51:26;;;;;;;;;;;0.20;99.90;;;;;;5058694;28;20063;-70
2022/01/10 01:53:52;;;;;;;;;;;0.10;99.90;;;;;;5070910;28;19958;-71
2022/01/10 01:56:18;;;;;;;;;;;0.00;99.90;;;;;;5052588;28;19923;-71
2022/01/10 01:58:45;;;;;;;;;;;0.00;99.90;;;;;;5070896;28;19908;-70
2022/01/10 02:01:11;;;;;;;;;;;0.00;99.90;;;;;;5069802;28;19909;-70
2022/01/10 02:03:38;;;;;;;;;;;0.00;99.90;;;;;;5070706;28;19954;-70
2022/01/10 02:06:07;;;;;;;;;;;0.00;99.90;;;;;;5070285;28;19954;-70
2022/01/10 02:08:36;;;;;;;;;;;0.00;99.90;;;;;;5070992;28;19947;-70
2022/01/10 02:11:02;;;;;;;;;;;0.00;99.90;;;;;;5069949;28;19926;-70
2022/01/10 02:13:28;;;;;;;;;;;0.00;99.90;;;;;;5070768;28;20353;-70
2022/01/10 02:16:02;;;;;;;;;;;0.00;99.90;;;;;;5070172;28;19951;-71
2022/01/10 02:18:28;;;;;;;;;;;0.00;99.90;;;;;;5053060;28;19955;-70
2022/01/10 02:20:54;;;;;;;;;;;0.00;99.90;;;;;;5070114;28;19908;-71
2022/01/10 02:23:20;;;;;;;;;;;0.00;99.90;;;;;;5071031;28;20354;-70
2022/01/10 02:25:46;;;;;;;;;;;0.00;99.90;;;;;;5070156;28;19980;-70
2022/01/10 02:28:12;;;;;;;;;;;0.00;99.90;;;;;;5070860;28;20364;-71
2022/01/10 02:30:38;;;;;;;;;;;-0.10;99.90;;;;;;5069884;28;19908;-70
2022/01/10 02:33:03;;;;;;;;;;;-0.10;99.90;;;;;;5052246;28;19919;-71
2022/01/10 02:35:37;;;;;;;;;;;-0.20;99.90;;;;;;5070096;28;19912;-70
2022/01/10 02:38:03;;;;;;;;;;;-0.20;99.90;;;;;;5070500;28;19916;-70
2022/01/10 02:40:30;;;;;;;;;;;-0.20;99.90;;;;;;5052123;28;20409;-70
2022/01/10 02:42:56;;;;;;;;;;;-0.30;99.90;;;;;;5050250;28;19921;-71
2022/01/10 02:45:22;;;;;;;;;;;-0.30;99.90;;;;;;5049967;28;20326;-70
2022/01/10 02:47:48;;;;;;;;;;;-0.30;99.90;;;;;;5069230;28;19916;-70
2022/01/10 02:50:15;;;;;;;;;;;-0.40;99.90;;;;;;5069620;28;19915;-71
2022/01/10 02:52:41;;;;;;;;;;;-0.40;99.90;;;;;;5069876;28;20003;-71
2022/01/10 02:55:08;;;;;;;;;;;-0.40;99.90;;;;;;5070012;28;19998;-72
2022/01/10 02:57:34;;;;;;;;;;;-0.40;99.90;;;;;;5069922;28;20005;-71
2022/01/10 03:00:00;;;;;;;;;;;-0.40;99.90;;;;;;5051906;28;19958;-71
2022/01/10 03:02:31;;;;;;;;;;;-0.30;99.90;;;;;;5069576;28;20007;-71
2022/01/10 03:04:56;;;;;;;;;;;-0.30;99.90;;;;;;5069748;28;19997;-70
2022/01/10 03:07:23;;;;;;;;;;;-0.30;99.90;;;;;;5069808;28;19967;-70
2022/01/10 03:09:49;;;;;;;;;;;-0.30;99.90;;;;;;5069544;28;19904;-71
2022/01/10 03:12:15;;;;;;;;;;;-1.20;99.90;;;;;;5051280;28;20365;-71
2022/01/10 03:14:41;;;;;;;;;;;-0.30;99.90;;;;;;5069963;28;20220;-71
2022/01/10 03:17:08;;;;;;;;;;;-0.30;99.90;;;;;;5051461;28;19913;-70
2022/01/10 03:19:35;;;;;;;;;;;-0.40;99.90;;;;;;5070271;28;20349;-71
2022/01/10 03:22:02;;;;;;;;;;;-0.40;99.90;;;;;;5069131;28;19919;-70
2022/01/10 03:24:28;;;;;;;;;;;-0.40;99.90;;;;;;5069839;28;20003;-70
2022/01/10 03:26:53;;;;;;;;;;;-0.40;99.90;;;;;;5069682;28;20415;-70
2022/01/10 03:29:19;;;;;;;;;;;-0.50;99.90;;;;;;5069567;28;20348;-70
2022/01/10 03:31:45;;;;;;;;;;;-0.50;99.90;;;;;;5069339;28;19913;-70
2022/01/10 03:34:12;;;;;;;;;;;-0.40;99.90;;;;;;5069489;28;19905;-70
2022/01/10 03:36:38;;;;;;;;;;;-0.50;99.90;;;;;;5069112;28;19964;-70
2022/01/10 03:39:04;;;;;;;;;;;-0.50;99.90;;;;;;5069362;28;19951;-70
2022/01/10 03:41:29;;;;;;;;;;;-0.50;99.90;;;;;;5060279;28;20010;-70
2022/01/10 03:43:55;;;;;;;;;;;-0.60;99.90;;;;;;5052644;28;19931;-70
2022/01/10 03:46:20;;;;;;;;;;;-0.50;99.90;;;;;;5059959;28;20018;-71
2022/01/10 03:48:46;;;;;;;;;;;-0.50;99.90;;;;;;5073155;28;19915;-70
2022/01/10 03:51:12;;;;;;;;;;;-0.50;99.90;;;;;;5072751;28;20337;-71
2022/01/10 03:53:37;;;;;;;;;;;-0.50;99.90;;;;;;5073243;28;19970;-71
2022/01/10 03:56:03;;;;;;;;;;;-0.50;99.90;;;;;;5054905;28;20364;-72
2022/01/10 03:58:29;;;;;;;;;;;-0.50;99.90;;;;;;5054809;28;20283;-71
2022/01/10 04:00:55;;;;;;;;;;;-0.50;99.90;;;;;;5069368;28;19909;-71
2022/01/10 04:03:20;;;;;;;;;;;-0.50;99.90;;;;;;5034930;28;20070;-70
2022/01/10 04:05:46;;;;;;;;;;;-0.50;99.90;;;;;;5054896;28;20325;-71
2022/01/10 04:08:12;;;;;;;;;;;-0.50;99.90;;;;;;5054738;28;19912;-71
2022/01/10 04:10:38;;;;;;;;;;;-0.50;99.90;;;;;;5072823;28;19908;-71
2022/01/10 04:13:03;;;;;;;;;;;-0.50;99.90;;;;;;5073042;28;20357;-71
2022/01/10 04:15:29;;;;;;;;;;;-0.50;99.90;;;;;;5073106;28;19981;-71
2022/01/10 04:17:56;;;;;;;;;;;-0.50;99.90;;;;;;5072653;28;20019;-71
2022/01/10 04:20:23;;;;;;;;;;;-0.50;99.90;;;;;;5072929;28;20386;-71
2022/01/10 04:22:48;;;;;;;;;;;-0.50;99.90;;;;;;5072427;28;20203;-71
2022/01/10 04:25:14;;;;;;;;;;;-0.50;99.90;;;;;;5054830;28;19983;-71
2022/01/10 04:27:40;;;;;;;;;;;-0.50;99.90;;;;;;5072530;28;20328;-71
2022/01/10 04:30:05;;;;;;;;;;;-0.40;99.90;;;;;;5072638;28;19908;-71
2022/01/10 04:32:32;;;;;;;;;;;-0.50;99.90;;;;;;5053934;28;20272;-70
2022/01/10 04:34:58;;;;;;;;;;;-0.40;99.90;;;;;;5072389;28;19908;-70
2022/01/10 04:37:24;;;;;;;;;;;-0.40;99.90;;;;;;5072302;28;19919;-70
2022/01/10 04:39:49;;;;;;;;;;;-0.40;99.90;;;;;;5072631;28;19954;-71
2022/01/10 04:42:15;;;;;;;;;;;-0.40;99.90;;;;;;5057307;28;19932;-70
2022/01/10 04:44:41;;;;;;;;;;;-0.40;99.90;;;;;;5052422;28;20343;-69
2022/01/10 04:47:07;;;;;;;;;;;-0.40;99.90;;;;;;5047074;28;19967;-71
2022/01/10 04:49:39;;;;;;;;;;;-0.40;99.90;;;;;;5072274;28;19904;-70
2022/01/10 04:52:05;;;;;;;;;;;-0.30;99.90;;;;;;5071651;28;19944;-71
2022/01/10 04:54:30;;;;;;;;;;;0.00;99.90;;;;;;5070856;28;19909;-70
2022/01/10 04:56:56;;;;;;;;;;;-0.30;99.90;;;;;;5071979;28;19916;-70
2022/01/10 04:59:21;;;;;;;;;;;-0.40;99.90;;;;;;5071820;28;19935;-71
2022/01/10 05:01:47;;;;;;;;;;;-0.30;99.90;;;;;;5071388;28;19913;-70
2022/01/10 05:04:12;;;;;;;;;;;-0.30;99.90;;;;;;5070987;28;19962;-70
2022/01/10 05:06:38;;;;;;;;;;;-0.30;99.90;;;;;;5071471;28;19920;-70
2022/01/10 05:09:04;;;;;;;;;;;-2.30;99.90;;;;;;5071725;28;20368;-70
2022/01/10 05:11:29;;;;;;;;;;;-0.30;99.90;;;;;;5053401;28;19916;-71
2022/01/10 05:13:55;;;;;;;;;;;-0.30;99.90;;;;;;5071541;28;20411;-70
2022/01/10 05:16:20;;;;;;;;;;;-0.30;99.90;;;;;;5071564;28;19981;-71
2022/01/10 05:18:46;;;;;;;;;;;-0.30;99.90;;;;;;5072087;28;19950;-70
2022/01/10 05:21:13;;;;;;;;;;;-0.40;99.90;;;;;;5071554;28;19934;-70
2022/01/10 05:23:38;;;;;;;;;;;-0.40;99.90;;;;;;5071253;28;19912;-70
2022/01/10 05:26:06;;;;;;;;;;;-0.50;99.90;;;;;;5053042;28;19915;-70
2022/01/10 05:28:31;;;;;;;;;;;-0.50;99.90;;;;;;5071676;28;19947;-70
2022/01/10 05:31:00;;;;;;;;;;;-0.40;99.90;;;;;;5070941;28;20336;-71
2022/01/10 05:33:26;;;;;;;;;;;-0.40;99.90;;;;;;5071113;28;19908;-71
2022/01/10 05:35:52;;;;;;;;;;;-0.40;99.90;;;;;;5070953;28;20406;-71
2022/01/10 05:38:18;;;;;;;;;;;-0.40;99.90;;;;;;5071532;28;19920;-70
2022/01/10 05:40:43;;;;;;;;;;;-0.30;99.90;;;;;;5070821;28;20291;-71
2022/01/10 05:43:09;;;;;;;;;;;-0.30;99.90;;;;;;5052933;28;19920;-70
2022/01/10 05:45:35;;;;;;;;;;;-0.30;99.90;;;;;;5070688;28;19911;-70
2022/01/10 05:48:08;;;;;;;;;;;-0.30;99.90;;;;;;5071294;28;19964;-71
2022/01/10 05:50:35;;;;;;;;;;;-0.30;99.90;;;;;;5070677;28;19904;-71
2022/01/10 05:53:01;;;;;;;;;;;-0.30;99.90;;;;;;5052706;28;20753;-70
2022/01/10 05:55:26;;;;;;;;;;;-0.30;99.90;;;;;;5070397;28;20068;-71
2022/01/10 05:57:52;;;;;;;;;;;-0.30;99.90;;;;;;5070804;28;19916;-71
2022/01/10 06:00:18;;;;;;;;;;;-0.30;99.90;;;;;;5070381;28;20375;-67
2022/01/10 06:02:44;;;;;;;;;;;-0.20;99.90;;;;;;5070438;28;20318;-65
2022/01/10 06:05:09;;;;;;;;;;;-0.10;99.90;;;;;;5069755;28;19909;-67
2022/01/10 06:07:36;;;;;;;;;;;0.00;99.90;;;;;;5070291;28;19917;-67
2022/01/10 06:10:02;;;;;;;;;;;-0.10;99.90;;;;;;5070401;28;19935;-65
2022/01/10 06:12:27;;;;;;;;;;;0.00;99.90;;;;;;5035345;28;19912;-66
2022/01/10 06:14:53;;;;;;;;;;;-0.10;99.90;;;;;;5069662;28;19908;-69
2022/01/10 06:17:18;;;;;;;;;;;-0.20;99.90;;;;;;5052195;28;19962;-66
2022/01/10 06:19:44;;;;;;;;;;;-0.10;99.90;;;;;;5070166;28;19912;-67
2022/01/10 06:22:09;;;;;;;;;;;-0.10;99.90;;;;;;5069812;28;19912;-66
2022/01/10 06:24:35;;;;;;;;;;;-0.10;99.90;;;;;;5069588;28;19951;-66
2022/01/10 06:27:01;;;;;;;;;;;-0.10;99.90;;;;;;5069563;28;19920;-67
2022/01/10 06:29:26;;;;;;;;;;;-0.10;99.90;;;;;;5066624;28;19939;-70
2022/01/10 06:31:52;;;;;;;;;;;0.10;99.90;;;;;;5068948;28;19912;-65
2022/01/10 06:34:18;;;;;;;;;;;0.20;99.90;;;;;;5069090;28;19924;-65
2022/01/10 06:36:45;;;;;;;;;;;0.20;99.90;;;;;;5070151;28;20007;-65
2022/01/10 06:39:11;;;;;;;;;;;0.40;99.90;;;;;;5068368;28;19908;-66
2022/01/10 06:41:36;;;;;;;;;;;0.40;99.90;;;;;;5063884;28;20323;-66
2022/01/10 06:44:02;;;;;;;;;;;0.50;99.90;;;;;;5069253;28;19951;-66
2022/01/10 06:46:27;;;;;;;;;;;0.40;99.90;;;;;;5068814;28;20288;-66
2022/01/10 06:48:53;;;;;;;;;;;0.40;99.90;;;;;;5069656;28;20313;-66
2022/01/10 06:51:19;;;;;;;;;;;0.40;99.90;;;;;;5068453;28;19927;-65
2022/01/10 06:53:44;;;;;;;;;;;0.40;99.90;;;;;;5069878;28;19928;-64
2022/01/10 06:56:10;;;;;;;;;;;0.40;99.90;;;;;;5069147;28;20284;-64
2022/01/10 06:58:35;;;;;;;;;;;0.40;99.90;;;;;;5069377;28;20278;-65
2022/01/10 07:01:01;;;;;;;;;;;0.40;99.90;;;;;;5069115;28;19908;-66
2022/01/10 07:03:26;;;;;;;;;;;0.30;99.90;;;;;;5068665;28;19990;-65
2022/01/10 07:05:52;;;;;;;;;;;0.20;99.90;;;;;;5068998;28;19916;-64
2022/01/10 07:08:17;;;;;;;;;;;0.20;99.90;;;;;;5068984;28;20014;-65
2022/01/10 07:10:43;;;;;;;;;;;0.30;99.90;;;;;;5067798;28;19912;-65
2022/01/10 07:13:09;;;;;;;;;;;0.20;99.90;;;;;;5067689;28;19916;-65
2022/01/10 07:15:34;;;;;;;;;;;0.10;99.90;;;;;;5063945;28;19952;-64
2022/01/10 07:18:00;;;;;;;;;;;0.30;99.90;;;;;;5073943;28;19912;-63
2022/01/10 07:20:27;;;;;;;;;;;0.50;99.90;;;;;;5069575;28;20068;-64
2022/01/10 07:22:52;;;;;;;;;;;0.60;99.90;;;;;;5073516;28;19958;-65
2022/01/10 07:25:18;;;;;;;;;;;0.60;99.90;;;;;;5072573;28;19942;-64
2022/01/10 07:27:44;;;;;;;;;;;0.50;99.90;;;;;;5073039;28;19920;-64
2022/01/10 07:30:09;;;;;;;;;;;0.50;99.90;;;;;;5072736;28;19913;-64
2022/01/10 07:32:35;;;;;;;;;;;0.50;99.90;;;;;;5066871;28;20023;-64
2022/01/10 07:35:01;;;;;;;;;;;0.50;99.90;;;;;;5070842;28;19962;-64
2022/01/10 07:37:26;;;;;;;;;;;0.60;99.90;;;;;;5065138;28;19916;-64
2022/01/10 07:39:52;;;;;;;;;;;0.60;99.90;;;;;;5072465;28;19908;-66
2022/01/10 07:42:17;;;;;;;;;;;0.60;99.90;;;;;;5071487;28;20195;-64
2022/01/10 07:44:43;;;;;;;;;;;0.60;99.90;;;;;;5071904;28;19923;-64
2022/01/10 07:47:08;;;;;;;;;;;0.60;99.90;;;;;;5075329;28;19916;-64
2022/01/10 07:49:34;;;;;;;;;;;0.50;99.90;;;;;;5079091;28;20399;-65
2022/01/10 07:52:00;;;;;;;;;;;0.40;99.90;;;;;;5078931;28;19916;-66
2022/01/10 07:54:26;;;;;;;;;;;0.60;99.90;;;;;;5069510;28;19908;-65
2022/01/10 07:56:52;;;;;;;;;;;0.60;99.90;;;;;;5067667;28;19966;-65
2022/01/10 07:59:19;;;;;;;;;;;0.60;99.90;;;;;;5070394;28;19955;-66
2022/01/10 08:01:46;;;;;;;;;;;0.60;99.90;;;;;;5070826;28;19935;-66
2022/01/10 08:04:12;;;;;;;;;;;0.60;99.90;;;;;;5054115;28;19913;-68
2022/01/10 08:06:38;;;;;;;;;;;0.50;99.90;;;;;;5069452;28;20351;-66
2022/01/10 08:09:03;;;;;;;;;;;0.50;99.90;;;;;;5075700;28;23052;-64
2022/01/10 08:11:29;;;;;;;;;;;0.60;99.90;;;;;;5071727;28;19921;-66
2022/01/10 08:13:55;;;;;;;;;;;0.70;99.90;;;;;;5066456;28;19909;-64
2022/01/10 08:16:21;;;;;;;;;;;0.80;99.90;;;;;;5068590;28;20404;-64
2022/01/10 08:18:46;;;;;;;;;;;1.00;99.90;;;;;;5067258;28;19944;-66
2022/01/10 08:21:12;;;;;;;;;;;1.00;99.90;;;;;;5072181;28;19962;-65
2022/01/10 08:23:38;;;;;;;;;;;1.00;99.90;;;;;;5063745;28;19920;-65
2022/01/10 08:26:06;;;;;;;;;;;1.10;99.90;;;;;;5065753;28;19942;-64
2022/01/10 08:28:31;;;;;;;;;;;1.00;99.90;;;;;;5061423;28;19927;-66
2022/01/10 08:30:57;;;;;;;;;;;1.00;99.90;;;;;;5060531;28;19908;-64
2022/01/10 08:33:22;;;;;;;;;;;0.80;99.90;;;;;;5063232;28;19917;-66
2022/01/10 08:35:48;;;;;;;;;;;0.70;99.90;;;;;;5062911;28;19918;-66
2022/01/10 08:38:14;;;;;;;;;;;0.70;99.90;;;;;;5064048;28;19922;-68
2022/01/10 08:40:39;;;;;;;;;;;0.80;99.90;;;;;;5061096;28;19908;-67
2022/01/10 08:43:09;;;;;;;;;;;0.80;99.90;;;;;;5065527;28;20019;-64
2022/01/10 08:45:35;;;;;;;;;;;0.80;99.90;;;;;;5049256;28;20428;-64
2022/01/10 08:48:00;;;;;;;;;;;0.80;99.90;;;;;;5047494;28;19916;-64
2022/01/10 08:50:27;;;;;;;;;;;0.90;99.90;;;;;;5063041;28;19908;-65
2022/01/10 08:52:52;;;;;;;;;;;0.80;99.90;;;;;;5061773;28;19917;-66
2022/01/10 08:55:18;;;;;;;;;;;0.70;99.90;;;;;;5064705;28;19923;-66
2022/01/10 08:57:44;;;;;;;;;;;0.60;99.90;;;;;;5065421;28;19967;-67
2022/01/10 09:00:10;;;;;;;;;;;0.60;99.90;;;;;;5065214;28;20049;-66
2022/01/10 09:02:36;;;;;;;;;;;0.60;99.90;;;;;;5063459;28;19932;-65
2022/01/10 09:05:01;;;;;;;;;;;0.50;99.90;;;;;;5067544;28;20629;-65
2022/01/10 09:07:27;;;;;;;;;;;0.50;99.90;;;;;;5064425;28;20003;-64
2022/01/10 09:09:52;;;;;;;;;;;0.60;99.90;;;;;;5063184;28;19917;-67
2022/01/10 09:12:18;;;;;;;;;;;0.60;99.90;;;;;;5066311;28;20672;-63
2022/01/10 09:14:43;;;;;;;;;;;0.70;99.90;;;;;;5065267;28;20011;-65
2022/01/10 09:17:09;;;;;;;;;;;0.60;99.90;;;;;;5063419;28;19912;-66
2022/01/10 09:19:35;;;;;;;;;;;0.40;99.90;;;;;;5062041;28;19913;-65
2022/01/10 09:22:00;;;;;;;;;;;0.40;99.90;;;;;;5064953;28;20006;-64
2022/01/10 09:24:26;;;;;;;;;;;0.50;99.90;;;;;;5067308;28;19916;-66
2022/01/10 09:26:51;;;;;;;;;;;0.50;99.90;;;;;;5065011;28;19935;-64
2022/01/10 09:29:17;;;;;;;;;;;0.50;99.90;;;;;;5068711;28;19962;-64
2022/01/10 09:31:43;;;;;;;;;;;0.60;99.90;;;;;;5064904;28;19913;-64
2022/01/10 09:34:08;;;;;;;;;;;0.40;99.90;;;;;;5067356;28;20328;-64
2022/01/10 09:36:34;;;;;;;;;;;0.40;99.90;;;;;;5063594;28;19917;-62
2022/01/10 09:39:00;;;;;;;;;;;0.40;99.90;;;;;;5059461;28;19915;-69
2022/01/10 09:41:26;;;;;;;;;;;0.50;99.90;;;;;;5059613;28;20009;-68
2022/01/10 09:44:00;;;;;;;;;;;0.60;99.90;;;;;;5059470;28;19916;-67
2022/01/10 09:46:27;;;;;;;;;;;0.50;99.90;;;;;;5058332;28;19931;-70
2022/01/10 09:48:52;;;;;;;;;;;0.30;99.90;;;;;;5056081;28;19916;-66
2022/01/10 09:51:19;;;;;;;;;;;0.30;99.90;;;;;;5058672;28;19961;-68
2022/01/10 09:53:45;;;;;;;;;;;0.40;99.90;;;;;;5047199;28;19912;-68
2022/01/10 09:56:11;;;;;;;;;;;0.30;99.90;;;;;;5061595;28;19917;-68
2022/01/10 09:58:36;;;;;;;;;;;0.30;99.90;;;;;;5065355;28;20562;-67
2022/01/10 10:01:03;;;;;;;;;;;0.20;99.90;;;;;;5050173;28;19931;-67
2022/01/10 10:03:28;;;;;;;;;;;0.20;99.90;;;;;;5063318;28;19990;-68
2022/01/10 10:05:54;;;;;;;;;;;0.20;99.90;;;;;;5059678;28;19924;-67
2022/01/10 10:08:21;;;;;;;;;;;0.30;99.90;;;;;;5060062;28;19912;-69
2022/01/10 10:10:47;;;;;;;;;;;0.20;99.90;;;;;;5064299;28;19954;-69
2022/01/10 10:13:14;;;;;;;;;;;0.20;99.90;;;;;;5044885;28;20356;-68
2022/01/10 10:15:40;;;;;;;;;;;-0.60;99.90;;;;;;5066964;28;19942;-68
2022/01/10 10:18:08;;;;;;;;;;;0.20;99.90;;;;;;5061940;28;19917;-70
2022/01/10 10:20:34;;;;;;;;;;;0.10;99.90;;;;;;5065347;28;19916;-68
2022/01/10 10:23:02;;;;;;;;;;;0.00;99.90;;;;;;5059039;28;20293;-69
2022/01/10 10:25:27;;;;;;;;;;;0.00;99.90;;;;;;5065508;28;19916;-68
2022/01/10 10:27:53;;;;;;;;;;;-0.20;99.90;;;;;;5063511;28;19996;-69
2022/01/10 10:30:22;;;;;;;;;;;-0.30;99.90;;;;;;5061922;28;19943;-67
2022/01/10 10:32:50;;;;;;;;;;;-0.20;99.90;;;;;;5063544;28;19920;-67
2022/01/10 10:35:16;;;;;;;;;;;-0.20;99.90;;;;;;5065477;28;20249;-68
2022/01/10 10:37:42;;;;;;;;;;;-0.20;99.90;;;;;;5062691;28;19912;-68
2022/01/10 10:40:09;;;;;;;;;;;-0.40;99.90;;;;;;5044497;28;19956;-67
2022/01/10 10:42:38;;;;;;;;;;;-0.40;99.90;;;;;;5064217;28;19928;-67
2022/01/10 10:45:04;;;;;;;;;;;-0.30;99.90;;;;;;5064102;28;19916;-65
2022/01/10 10:47:30;;;;;;;;;;;-0.40;99.90;;;;;;5065338;28;19916;-69
2022/01/10 10:49:56;;;;;;;;;;;-0.40;99.90;;;;;;5045423;28;19912;-67
2022/01/10 10:52:22;;;;;;;;;;;0.20;99.90;;;;;;5063689;28;20019;-67
2022/01/10 10:54:48;;;;;;;;;;;-0.40;99.90;;;;;;5065180;28;20354;-67
2022/01/10 10:57:15;;;;;;;;;;;-0.40;99.90;;;;;;5063002;28;19921;-67
2022/01/10 10:59:43;;;;;;;;;;;-0.40;99.90;;;;;;5061161;28;20336;-65
2022/01/10 11:02:10;;;;;;;;;;;-0.30;99.90;;;;;;5043576;28;19986;-67
2022/01/10 11:04:35;;;;;;;;;;;-0.10;99.90;;;;;;5044705;28;20007;-68
2022/01/10 11:07:02;;;;;;;;;;;0.00;99.90;;;;;;5060335;28;19916;-67
2022/01/10 11:09:28;;;;;;;;;;;-0.20;99.90;;;;;;5060630;28;19908;-66
2022/01/10 11:11:53;;;;;;;;;;;-0.20;99.90;;;;;;5058161;28;19935;-66
2022/01/10 11:14:22;;;;;;;;;;;-0.40;99.90;;;;;;5062814;28;19955;-66
2022/01/10 11:16:50;;;;;;;;;;;-0.40;99.90;;;;;;5058190;28;20019;-65
2022/01/10 11:19:16;;;;;;;;;;;-0.40;99.90;;;;;;5060613;28;19912;-67
2022/01/10 11:21:46;;;;;;;;;;;-0.40;99.90;;;;;;5046434;28;20360;-65
2022/01/10 11:24:12;;;;;;;;;;;-0.50;99.90;;;;;;5062790;28;19920;-65
2022/01/10 11:26:38;;;;;;;;;;;-0.40;99.90;;;;;;5062696;28;20581;-66
2022/01/10 11:29:05;;;;;;;;;;;-0.50;99.90;;;;;;5060733;28;19917;-66
2022/01/10 11:31:31;;;;;;;;;;;-0.50;99.90;;;;;;5062895;28;19920;-67
2022/01/10 11:33:58;;;;;;;;;;;-0.60;99.90;;;;;;5062855;28;20291;-66
2022/01/10 11:36:25;;;;;;;;;;;-0.60;99.90;;;;;;5054519;28;19920;-65
2022/01/10 11:38:51;;;;;;;;;;;-0.50;99.90;;;;;;5063052;28;19962;-67
2022/01/10 11:41:22;;;;;;;;;;;-0.40;99.90;;;;;;5059683;28;19982;-65
2022/01/10 11:43:55;;;;;;;;;;;-0.40;99.90;;;;;;5059447;28;20556;-66
2022/01/10 11:46:37;;;;;;;;;;;-0.40;99.90;;;;;;5058461;28;20612;-67
2022/01/10 11:49:09;;;;;;;;;;;-0.30;99.90;;;;;;5061499;28;19917;-65
2022/01/10 11:51:34;;;;;;;;;;;-1.50;99.90;;;;;;5057248;28;19939;-66
2022/01/10 11:54:11;;;;;;;;;;;-0.50;99.90;;;;;;5057338;28;19916;-67
2022/01/10 11:56:38;;;;;;;;;;;-0.50;99.90;;;;;;5037251;28;20107;-65
2022/01/10 11:59:08;;;;;;;;;;;-0.50;99.90;;;;;;5052604;28;20011;-65
2022/01/10 12:01:34;;;;;;;;;;;-0.50;99.90;;;;;;5061398;28;20003;-65
2022/01/10 12:04:01;;;;;;;;;;;-0.50;99.90;;;;;;5063528;28;19958;-64
2022/01/10 12:06:27;;;;;;;;;;;-0.50;99.90;;;;;;5065368;28;19912;-66
2022/01/10 12:08:56;;;;;;;;;;;-0.70;99.90;;;;;;5066808;28;20302;-65
2022/01/10 12:11:25;;;;;;;;;;;-0.80;99.90;;;;;;5065475;28;19931;-64
2022/01/10 12:13:52;;;;;;;;;;;-1.00;99.90;;;;;;5069041;28;19916;-65
2022/01/10 12:16:18;;;;;;;;;;;-1.00;99.90;;;;;;5067931;28;19970;-65
2022/01/10 12:18:44;;;;;;;;;;;-1.00;99.90;;;;;;5066138;28;20006;-64
2022/01/10 12:21:10;;;;;;;;;;;-1.10;99.90;;;;;;5066222;28;19916;-67
2022/01/10 12:23:35;;;;;;;;;;;-1.10;99.90;;;;;;5062470;28;19993;-66
2022/01/10 12:26:01;;;;;;;;;;;-0.40;99.90;;;;;;5046931;28;19931;-68
2022/01/10 12:28:27;;;;;;;;;;;-1.20;99.90;;;;;;5068754;28;19917;-67
2022/01/10 12:30:54;;;;;;;;;;;-0.70;99.90;;;;;;5068872;28;19960;-66
2022/01/10 12:33:20;;;;;;;;;;;-1.30;99.90;;;;;;5058398;28;19920;-66
2022/01/10 12:35:45;;;;;;;;;;;-1.30;99.90;;;;;;5067186;28;19917;-66
2022/01/10 12:38:12;;;;;;;;;;;-1.20;99.90;;;;;;5068891;28;19978;-66
2022/01/10 12:40:37;;;;;;;;;;;-1.20;99.90;;;;;;5073227;28;19909;-65
2022/01/10 12:43:04;;;;;;;;;;;-1.20;99.90;;;;;;5057235;28;19945;-64
2022/01/10 12:45:36;;;;;;;;;;;-1.20;99.90;;;;;;5064830;28;19943;-67
2022/01/10 12:48:02;;;;;;;;;;;-1.20;99.90;;;;;;5064078;28;19970;-67
2022/01/10 12:50:28;;;;;;;;;;;-1.20;99.90;;;;;;5067672;28;19920;-66
2022/01/10 12:52:54;;;;;;;;;;;-1.20;99.90;;;;;;5065463;28;19954;-66
2022/01/10 12:55:20;;;;;;;;;;;-1.20;99.90;;;;;;5062814;28;20285;-66
2022/01/10 12:57:49;;;;;;;;;;;-1.20;99.90;;;;;;5061861;28;19920;-68
2022/01/10 13:00:15;;;;;;;;;;;-1.30;99.90;;;;;;5065014;28;19916;-66
2022/01/10 13:02:40;;;;;;;;;;;-1.30;99.90;;;;;;5058680;28;20296;-67
2022/01/10 13:05:07;;;;;;;;;;;-1.40;99.90;;;;;;5066228;28;19924;-66
2022/01/10 13:07:34;;;;;;;;;;;-1.50;99.90;;;;;;5068407;28;19912;-66
2022/01/10 13:10:05;;;;;;;;;;;-1.50;99.90;;;;;;5064551;28;19916;-64
2022/01/10 13:12:32;;;;;;;;;;;-1.50;99.90;;;;;;5047402;28;19913;-67
2022/01/10 13:15:06;;;;;;;;;;;-1.50;99.90;;;;;;5065764;28;19953;-68
2022/01/10 13:17:32;;;;;;;;;;;-1.50;99.90;;;;;;5060232;28;19977;-66
2022/01/10 13:20:00;;;;;;;;;;;-1.50;99.90;;;;;;5063888;28;19921;-67
2022/01/10 13:22:30;;;;;;;;;;;-1.50;99.90;;;;;;5058172;28;20332;-63
2022/01/10 13:24:58;;;;;;;;;;;-1.50;99.90;;;;;;5060829;28;20672;-69
2022/01/10 13:27:33;;;;;;;;;;;-1.40;99.90;;;;;;5059618;28;19916;-63
2022/01/10 13:30:13;;;;;;;;;;;-1.30;99.90;;;;;;5063053;28;19912;-67
2022/01/10 13:32:41;;;;;;;;;;;-1.30;99.90;;;;;;5062770;28;20238;-67
2022/01/10 13:35:08;;;;;;;;;;;-1.30;99.90;;;;;;5065443;28;19940;-70
2022/01/10 13:37:37;;;;;;;;;;;-1.40;99.90;;;;;;5068345;28;19912;-65
2022/01/10 13:40:06;;;;;;;;;;;-1.40;99.90;;;;;;5067893;28;19908;-66
2022/01/10 13:42:52;;;;;;;;;;;-1.50;99.90;;;;;;5065144;28;20277;-66
2022/01/10 13:45:20;;;;;;;;;;;-1.70;99.90;;;;;;5050793;28;20658;-66
2022/01/10 13:47:51;;;;;;;;;;;-1.80;99.90;;;;;;5058491;28;19923;-66
2022/01/10 13:50:20;;;;;;;;;;;-1.70;99.90;;;;;;5060373;28;19912;-66
2022/01/10 13:53:18;;;;;;;;;;;-1.80;99.90;;;;;;5068976;28;20294;-65
2022/01/10 13:56:02;;;;;;;;;;;-1.90;99.90;;;;;;5021354;28;19908;-65
2022/01/10 13:58:29;;;;;;;;;;;-1.90;99.90;;;;;;5063733;28;19920;-65
2022/01/10 14:00:55;;;;;;;;;;;-1.90;99.90;;;;;;5067203;28;19912;-64
2022/01/10 14:03:23;;;;;;;;;;;-1.90;99.90;;;;;;5065163;28;19999;-65
2022/01/10 14:06:03;;;;;;;;;;;-1.80;99.90;;;;;;5068013;28;19912;-65
2022/01/10 14:08:29;;;;;;;;;;;-1.90;99.90;;;;;;5051368;28;19920;-66
2022/01/10 14:10:54;;;;;;;;;;;-2.00;99.90;;;;;;5067933;28;21028;-66
2022/01/10 14:13:20;;;;;;;;;;;-1.90;99.90;;;;;;5065292;28;20360;-65
2022/01/10 14:15:45;;;;;;;;;;;-1.90;99.90;;;;;;5066711;28;20548;-68
2022/01/10 14:18:11;;;;;;;;;;;-1.80;99.90;;;;;;5066763;28;20007;-66
2022/01/10 14:20:36;;;;;;;;;;;-1.00;99.90;;;;;;5058488;28;20407;-65
2022/01/10 14:23:02;;;;;;;;;;;-0.90;99.90;;;;;;5060513;28;20476;-66
2022/01/10 14:25:28;;;;;;;;;;;-1.00;99.90;;;;;;5062991;28;19991;-66
2022/01/10 14:27:54;;;;;;;;;;;-1.20;99.90;;;;;;5068114;28;20502;-66